Time;durP1;ratioP1;P1;durP2;ratioP2;P2;SDS_P1;SDS_P2;PMS_P1;PMS_P2;Temp;Humidity;BMP_temperature;BMP_pressure;BME280_temperature;BME280_humidity;BME280_pressure;Samples;Min_cycle;Max_cycle;Signal;HPM_P1;HPM_P2
2024/03/19 01:01:39;;;;;;;1999.90;999.90;;;;;;;;;;5013783;28;20271;-70
2024/03/19 01:04:24;;;;;;;1999.90;999.90;;;;;;;;;;5016045;28;20255;-68
2024/03/19 01:07:09;;;;;;;1999.90;999.90;;;;;;;;;;5016649;28;20310;-69
2024/03/19 01:09:55;;;;;;;1999.90;999.90;;;;;;;;;;5016332;28;20231;-70
2024/03/19 01:12:41;;;;;;;1999.90;999.90;;;;;;;;;;5010054;28;20510;-68
2024/03/19 01:15:27;;;;;;;1999.90;999.90;;;;;;;;;;5001426;28;20253;-69
2024/03/19 01:18:14;;;;;;;1999.90;999.90;;;;;;;;;;5002603;28;20255;-69
2024/03/19 01:20:59;;;;;;;1999.90;999.90;;;;;;;;;;5015191;28;20251;-68
2024/03/19 01:23:45;;;;;;;1999.90;999.90;;;;;;;;;;5016830;28;20324;-71
2024/03/19 01:26:30;;;;;;;1999.90;999.90;;;;;;;;;;5012846;28;20240;-69
2024/03/19 01:29:15;;;;;;;1999.90;999.90;;;;;;;;;;5004728;28;20208;-71
2024/03/19 01:32:00;;;;;;;1999.90;999.90;;;;;;;;;;5015616;28;20295;-69
2024/03/19 01:34:46;;;;;;;1999.90;999.90;;;;;;;;;;4998715;28;20332;-69
2024/03/19 01:51:35;;;;;;;1999.90;999.90;;;;;;;;;;5000376;28;20682;-76
2024/03/19 01:54:22;;;;;;;1999.90;999.90;;;;;;;;;;4993500;28;20221;-69
2024/03/19 01:57:07;;;;;;;1999.90;999.90;;;;;;;;;;4994880;28;20579;-70
2024/03/19 01:59:52;;;;;;;1999.90;999.90;;;;;;;;;;4994132;28;20231;-69
2024/03/19 02:02:37;;;;;;;1999.90;999.90;;;;;;;;;;4994011;28;20706;-69
2024/03/19 02:05:22;;;;;;;1999.90;999.90;;;;;;;;;;4992884;28;20426;-70
2024/03/19 02:08:07;;;;;;;1999.90;999.90;;;;;;;;;;4994046;28;20210;-69
2024/03/19 02:10:54;;;;;;;1999.90;999.90;;;;;;;;;;4993943;28;20230;-69
2024/03/19 02:13:38;;;;;;;1999.90;999.90;;;;;;;;;;4993745;28;20562;-69
2024/03/19 02:16:23;;;;;;;1999.90;999.90;;;;;;;;;;4994145;28;20599;-67
2024/03/19 02:19:08;;;;;;;1999.90;999.90;;;;;;;;;;4993506;28;20204;-68
2024/03/19 02:21:53;;;;;;;1999.90;999.90;;;;;;;;;;4993935;28;20287;-69
2024/03/19 02:24:41;;;;;;;1999.90;999.90;;;;;;;;;;4993739;28;20683;-69
2024/03/19 02:27:25;;;;;;;1999.90;999.90;;;;;;;;;;4993451;28;20207;-68
2024/03/19 02:30:11;;;;;;;1999.90;999.90;;;;;;;;;;4993735;28;20231;-68
2024/03/19 02:32:56;;;;;;;1999.90;999.90;;;;;;;;;;4993461;28;20776;-68
2024/03/19 02:35:40;;;;;;;1999.90;999.90;;;;;;;;;;4993324;28;20202;-65
2024/03/19 02:38:27;;;;;;;1999.90;999.90;;;;;;;;;;4993015;28;20412;-66
2024/03/19 02:41:13;;;;;;;1999.90;999.90;;;;;;;;;;4981688;28;20367;-67
2024/03/19 02:43:58;;;;;;;1999.90;999.90;;;;;;;;;;4973812;28;20984;-66
2024/03/19 02:46:43;;;;;;;1999.90;999.90;;;;;;;;;;4993420;28;20207;-67
2024/03/19 02:49:28;;;;;;;1999.90;999.90;;;;;;;;;;4974236;28;20599;-69
2024/03/19 02:52:13;;;;;;;1999.90;999.90;;;;;;;;;;4984533;28;20328;-68
2024/03/19 02:54:58;;;;;;;1999.90;999.90;;;;;;;;;;4973675;28;20572;-68
2024/03/19 02:57:45;;;;;;;1999.90;999.90;;;;;;;;;;4985523;28;20351;-69
2024/03/19 03:00:30;;;;;;;1999.90;999.90;;;;;;;;;;4973628;28;20227;-69
2024/03/19 03:03:15;;;;;;;1999.90;999.90;;;;;;;;;;4986754;28;20227;-70
2024/03/19 03:06:00;;;;;;;1999.90;999.90;;;;;;;;;;4993238;28;20320;-68
2024/03/19 03:08:45;;;;;;;1999.90;999.90;;;;;;;;;;4993144;28;20218;-69
2024/03/19 03:11:29;;;;;;;1999.90;999.90;;;;;;;;;;4992951;28;20222;-70
2024/03/19 03:14:15;;;;;;;1999.90;999.90;;;;;;;;;;4989066;28;20211;-69
2024/03/19 03:17:00;;;;;;;1999.90;999.90;;;;;;;;;;4973254;28;20208;-70
2024/03/19 03:19:45;;;;;;;1999.90;999.90;;;;;;;;;;4978813;28;20240;-72
2024/03/19 03:22:30;;;;;;;1999.90;999.90;;;;;;;;;;4992664;28;20199;-68
2024/03/19 03:25:15;;;;;;;1999.90;999.90;;;;;;;;;;4978586;28;20211;-67
2024/03/19 03:28:00;;;;;;;1999.90;999.90;;;;;;;;;;4973127;28;20686;-69
2024/03/19 03:30:47;;;;;;;1999.90;999.90;;;;;;;;;;4972801;28;20251;-69
2024/03/19 03:33:32;;;;;;;1999.90;999.90;;;;;;;;;;4971538;28;20920;-67
2024/03/19 03:36:17;;;;;;;1999.90;999.90;;;;;;;;;;4974060;28;20215;-65
2024/03/19 03:39:04;;;;;;;1999.90;999.90;;;;;;;;;;4984282;28;20325;-69
2024/03/19 03:41:49;;;;;;;1999.90;999.90;;;;;;;;;;4972990;28;20217;-65
2024/03/19 03:44:34;;;;;;;1999.90;999.90;;;;;;;;;;4972436;28;20240;-70
2024/03/19 03:47:20;;;;;;;1999.90;999.90;;;;;;;;;;4974441;28;20208;-68
2024/03/19 03:50:07;;;;;;;1999.90;999.90;;;;;;;;;;4990803;28;20550;-68
2024/03/19 03:52:52;;;;;;;1999.90;999.90;;;;;;;;;;4985830;28;20876;-68
2024/03/19 03:55:38;;;;;;;1999.90;999.90;;;;;;;;;;4972919;28;20332;-68
2024/03/19 03:58:23;;;;;;;1999.90;999.90;;;;;;;;;;4982791;28;20404;-69
2024/03/19 04:01:09;;;;;;;1999.90;999.90;;;;;;;;;;4991965;28;20230;-67
2024/03/19 04:03:55;;;;;;;1999.90;999.90;;;;;;;;;;4977088;28;20252;-69
2024/03/19 04:06:40;;;;;;;1999.90;999.90;;;;;;;;;;4972750;28;20212;-67
2024/03/19 04:09:25;;;;;;;1999.90;999.90;;;;;;;;;;4990921;28;20231;-65
2024/03/19 04:12:10;;;;;;;1999.90;999.90;;;;;;;;;;4990967;28;20280;-69
2024/03/19 04:14:55;;;;;;;1999.90;999.90;;;;;;;;;;4972468;28;20320;-69
2024/03/19 04:17:40;;;;;;;1999.90;999.90;;;;;;;;;;4976923;28;20212;-65
2024/03/19 04:20:26;;;;;;;1999.90;999.90;;;;;;;;;;4991960;28;20356;-65
2024/03/19 04:23:11;;;;;;;1999.90;999.90;;;;;;;;;;4982624;28;20228;-68
2024/03/19 04:25:56;;;;;;;1999.90;999.90;;;;;;;;;;4971290;28;20451;-69
2024/03/19 04:28:41;;;;;;;1999.90;999.90;;;;;;;;;;4983025;28;20278;-68
2024/03/19 04:31:26;;;;;;;1999.90;999.90;;;;;;;;;;4994974;28;20226;-69
2024/03/19 04:34:11;;;;;;;1999.90;999.90;;;;;;;;;;4978205;28;20285;-70
2024/03/19 04:36:58;;;;;;;1999.90;999.90;;;;;;;;;;4976158;28;20209;-69
2024/03/19 04:39:43;;;;;;;1999.90;999.90;;;;;;;;;;4976020;28;20239;-69
2024/03/19 04:42:29;;;;;;;1999.90;999.90;;;;;;;;;;4977712;28;20433;-70
2024/03/19 04:45:14;;;;;;;1999.90;999.90;;;;;;;;;;4995008;28;20729;-69
2024/03/19 04:47:58;;;;;;;1999.90;999.90;;;;;;;;;;4987586;28;20309;-70
2024/03/19 04:50:43;;;;;;;1999.90;999.90;;;;;;;;;;4988216;28;20231;-69
2024/03/19 04:53:30;;;;;;;1999.90;999.90;;;;;;;;;;4983584;28;20230;-69
2024/03/19 04:56:15;;;;;;;1999.90;999.90;;;;;;;;;;4975833;28;20207;-69
2024/03/19 04:58:59;;;;;;;1999.90;999.90;;;;;;;;;;4976121;28;20286;-69
2024/03/19 05:01:44;;;;;;;1999.90;999.90;;;;;;;;;;4975796;28;20216;-69
2024/03/19 05:04:29;;;;;;;1999.90;999.90;;;;;;;;;;4975318;28;20228;-70
2024/03/19 05:07:14;;;;;;;1999.90;999.90;;;;;;;;;;4976615;28;20697;-68
2024/03/19 05:10:00;;;;;;;1999.90;999.90;;;;;;;;;;4994755;28;20222;-66
2024/03/19 05:12:45;;;;;;;1999.90;999.90;;;;;;;;;;4988781;28;20275;-68
2024/03/19 05:15:30;;;;;;;1999.90;999.90;;;;;;;;;;4975350;28;20212;-67
2024/03/19 05:18:16;;;;;;;1999.90;999.90;;;;;;;;;;4983944;28;20441;-68
2024/03/19 05:21:01;;;;;;;1999.90;999.90;;;;;;;;;;4994691;28;20225;-68
2024/03/19 05:23:46;;;;;;;1999.90;999.90;;;;;;;;;;4980570;28;20281;-71
2024/03/19 05:26:33;;;;;;;1999.90;999.90;;;;;;;;;;4975284;28;20279;-70
2024/03/19 05:29:19;;;;;;;1999.90;999.90;;;;;;;;;;4992562;28;20211;-69
2024/03/19 05:32:05;;;;;;;1999.90;999.90;;;;;;;;;;4994276;28;20235;-69
2024/03/19 05:34:50;;;;;;;1999.90;999.90;;;;;;;;;;4974566;28;20431;-69
2024/03/19 05:37:35;;;;;;;1999.90;999.90;;;;;;;;;;4978682;28;20271;-69
2024/03/19 05:40:20;;;;;;;1999.90;999.90;;;;;;;;;;4993941;28;20355;-68
2024/03/19 05:43:07;;;;;;;1999.90;999.90;;;;;;;;;;4991969;28;20235;-70
2024/03/19 05:45:55;;;;;;;1999.90;999.90;;;;;;;;;;4979245;28;20227;-69
2024/03/19 05:48:40;;;;;;;1999.90;999.90;;;;;;;;;;4987152;28;20323;-67
2024/03/19 05:51:25;;;;;;;1999.90;999.90;;;;;;;;;;4993408;28;20252;-67
2024/03/19 05:54:11;;;;;;;1999.90;999.90;;;;;;;;;;4976673;28;20208;-69
2024/03/19 05:56:56;;;;;;;1999.90;999.90;;;;;;;;;;4974509;28;20594;-69
2024/03/19 05:59:43;;;;;;;1999.90;999.90;;;;;;;;;;4974397;28;20846;-70
2024/03/19 06:02:28;;;;;;;1999.90;999.90;;;;;;;;;;4977714;28;20285;-70
2024/03/19 06:05:13;;;;;;;1999.90;999.90;;;;;;;;;;4975016;28;20226;-68
2024/03/19 06:07:58;;;;;;;1999.90;999.90;;;;;;;;;;4984142;28;20339;-67
2024/03/19 06:10:43;;;;;;;1999.90;999.90;;;;;;;;;;4993857;28;20768;-68
2024/03/19 06:13:28;;;;;;;1999.90;999.90;;;;;;;;;;4974676;28;20699;-69
2024/03/19 06:16:15;;;;;;;1999.90;999.90;;;;;;;;;;4980985;28;20335;-69
2024/03/19 06:19:00;;;;;;;1999.90;999.90;;;;;;;;;;4993565;28;20320;-71
2024/03/19 06:21:44;;;;;;;1999.90;999.90;;;;;;;;;;4975074;28;20387;-69
2024/03/19 06:24:29;;;;;;;1999.90;999.90;;;;;;;;;;4973691;28;20797;-69
2024/03/19 06:27:14;;;;;;;1999.90;999.90;;;;;;;;;;4974220;28;20570;-69
2024/03/19 06:29:59;;;;;;;1999.90;999.90;;;;;;;;;;4972988;28;20463;-67
2024/03/19 06:32:46;;;;;;;1999.90;999.90;;;;;;;;;;4982955;28;20583;-70
2024/03/19 06:35:32;;;;;;;1999.90;999.90;;;;;;;;;;4993114;28;20207;-66
2024/03/19 06:38:17;;;;;;;1999.90;999.90;;;;;;;;;;4993320;28;20207;-69
2024/03/19 06:41:02;;;;;;;1999.90;999.90;;;;;;;;;;4993783;28;20230;-68
2024/03/19 06:43:47;;;;;;;1999.90;999.90;;;;;;;;;;4993019;28;20235;-69
2024/03/19 06:46:32;;;;;;;1999.90;999.90;;;;;;;;;;4993013;28;20266;-67
2024/03/19 06:49:18;;;;;;;1999.90;999.90;;;;;;;;;;4992962;28;20694;-70
2024/03/19 06:52:04;;;;;;;1999.90;999.90;;;;;;;;;;4992744;28;20209;-69
2024/03/19 06:54:49;;;;;;;1999.90;999.90;;;;;;;;;;4992918;28;20288;-68
2024/03/19 06:57:34;;;;;;;1999.90;999.90;;;;;;;;;;4993082;28;20211;-69
2024/03/19 07:00:19;;;;;;;1999.90;999.90;;;;;;;;;;4992722;28;20834;-68
2024/03/19 07:03:05;;;;;;;1999.90;999.90;;;;;;;;;;4993010;28;20203;-69
2024/03/19 07:05:51;;;;;;;1999.90;999.90;;;;;;;;;;4992214;28;20437;-69
2024/03/19 07:08:36;;;;;;;1999.90;999.90;;;;;;;;;;4992903;28;20214;-68
2024/03/19 07:11:21;;;;;;;1999.90;999.90;;;;;;;;;;4992672;28;20231;-69
2024/03/19 07:14:07;;;;;;;1999.90;999.90;;;;;;;;;;4992470;28;20223;-67
2024/03/19 07:16:52;;;;;;;1999.90;999.90;;;;;;;;;;4992655;28;20232;-71
2024/03/19 07:19:37;;;;;;;1999.90;999.90;;;;;;;;;;4992546;28;20233;-69
2024/03/19 07:22:25;;;;;;;1999.90;999.90;;;;;;;;;;4992688;28;20724;-69
2024/03/19 07:25:10;;;;;;;1999.90;999.90;;;;;;;;;;4990392;28;25174;-69
2024/03/19 07:27:55;;;;;;;1999.90;999.90;;;;;;;;;;4992588;28;20209;-68
2024/03/19 07:30:40;;;;;;;1999.90;999.90;;;;;;;;;;4992169;28;20226;-65
2024/03/19 07:33:24;;;;;;;1999.90;999.90;;;;;;;;;;4991849;28;20332;-68
2024/03/19 07:36:10;;;;;;;1999.90;999.90;;;;;;;;;;4992141;28;20203;-70
2024/03/19 07:38:57;;;;;;;1999.90;999.90;;;;;;;;;;4992407;28;20616;-69
2024/03/19 07:41:42;;;;;;;1999.90;999.90;;;;;;;;;;4992327;28;20252;-67
2024/03/19 07:44:27;;;;;;;1999.90;999.90;;;;;;;;;;4992028;28;20242;-70
2024/03/19 07:47:12;;;;;;;1999.90;999.90;;;;;;;;;;4992097;28;20214;-69
2024/03/19 07:49:57;;;;;;;1999.90;999.90;;;;;;;;;;4992241;28;20233;-69
2024/03/19 07:52:42;;;;;;;1999.90;999.90;;;;;;;;;;4992406;28;20324;-70
2024/03/19 07:55:28;;;;;;;1999.90;999.90;;;;;;;;;;4992252;28;20203;-70
2024/03/19 07:58:13;;;;;;;1999.90;999.90;;;;;;;;;;4992047;28;20578;-70
2024/03/19 08:00:58;;;;;;;1999.90;999.90;;;;;;;;;;4991874;28;20250;-69
2024/03/19 08:03:43;;;;;;;1999.90;999.90;;;;;;;;;;4984888;28;20274;-70
2024/03/19 08:06:28;;;;;;;1999.90;999.90;;;;;;;;;;4988767;28;20214;-69
2024/03/19 08:09:13;;;;;;;1999.90;999.90;;;;;;;;;;4993092;28;20242;-71
2024/03/19 08:12:05;;;;;;;1999.90;999.90;;;;;;;;;;4990689;28;20593;-69
2024/03/19 08:14:51;;;;;;;1999.90;999.90;;;;;;;;;;4992998;28;20206;-70
2024/03/19 08:17:36;;;;;;;1999.90;999.90;;;;;;;;;;4984949;28;20490;-71
2024/03/19 08:20:21;;;;;;;1999.90;999.90;;;;;;;;;;4988955;28;20824;-70
2024/03/19 08:23:06;;;;;;;1999.90;999.90;;;;;;;;;;4993685;28;20213;-67
2024/03/19 08:25:51;;;;;;;1999.90;999.90;;;;;;;;;;4993381;28;20801;-70
2024/03/19 08:28:38;;;;;;;1999.90;999.90;;;;;;;;;;4993034;28;20217;-71
2024/03/19 08:31:23;;;;;;;1999.90;999.90;;;;;;;;;;4992517;28;20232;-71
2024/03/19 08:34:08;;;;;;;1999.90;999.90;;;;;;;;;;4989757;28;20210;-69
2024/03/19 08:36:53;;;;;;;1999.90;999.90;;;;;;;;;;4992832;28;20339;-71
2024/03/19 08:39:38;;;;;;;1999.90;999.90;;;;;;;;;;4991371;28;20605;-70
2024/03/19 08:42:24;;;;;;;1999.90;999.90;;;;;;;;;;4992711;28;20699;-69
2024/03/19 08:45:11;;;;;;;1999.90;999.90;;;;;;;;;;4991482;28;20228;-71
2024/03/19 08:47:56;;;;;;;1999.90;999.90;;;;;;;;;;4990921;28;20290;-70
2024/03/19 08:50:41;;;;;;;1999.90;999.90;;;;;;;;;;4990928;28;20302;-70
2024/03/19 08:53:26;;;;;;;1999.90;999.90;;;;;;;;;;4993080;28;20230;-70
2024/03/19 08:56:11;;;;;;;1999.90;999.90;;;;;;;;;;4992658;28;20206;-72
2024/03/19 08:58:56;;;;;;;1999.90;999.90;;;;;;;;;;4993197;28;20215;-68
2024/03/19 09:01:42;;;;;;;1999.90;999.90;;;;;;;;;;4992897;28;20207;-68
2024/03/19 09:04:27;;;;;;;1999.90;999.90;;;;;;;;;;4992243;28;20220;-69
2024/03/19 09:07:12;;;;;;;1999.90;999.90;;;;;;;;;;4991274;28;20588;-70
2024/03/19 09:09:57;;;;;;;1999.90;999.90;;;;;;;;;;4992960;28;20250;-68
2024/03/19 09:12:42;;;;;;;1999.90;999.90;;;;;;;;;;4992801;28;20207;-70
2024/03/19 09:15:27;;;;;;;1999.90;999.90;;;;;;;;;;4984942;28;20539;-70
2024/03/19 09:18:14;;;;;;;1999.90;999.90;;;;;;;;;;4991525;28;20216;-70
2024/03/19 09:20:59;;;;;;;1999.90;999.90;;;;;;;;;;4990528;28;20235;-71
2024/03/19 09:23:44;;;;;;;1999.90;999.90;;;;;;;;;;4992304;28;20751;-70
2024/03/19 09:26:29;;;;;;;1999.90;999.90;;;;;;;;;;4990668;28;20218;-70
2024/03/19 09:29:14;;;;;;;1999.90;999.90;;;;;;;;;;4987773;28;20216;-68
2024/03/19 09:31:59;;;;;;;1999.90;999.90;;;;;;;;;;4992150;28;20211;-70
2024/03/19 09:34:45;;;;;;;1999.90;999.90;;;;;;;;;;4991397;28;20204;-70
2024/03/19 09:37:31;;;;;;;1999.90;999.90;;;;;;;;;;4990103;28;20207;-67
2024/03/19 09:40:16;;;;;;;1999.90;999.90;;;;;;;;;;4992291;28;20226;-69
2024/03/19 09:43:02;;;;;;;1999.90;999.90;;;;;;;;;;4988806;28;20700;-70
2024/03/19 09:45:48;;;;;;;1999.90;999.90;;;;;;;;;;4991506;28;20230;-70
2024/03/19 09:48:33;;;;;;;1999.90;999.90;;;;;;;;;;4991166;28;20211;-70
2024/03/19 09:51:21;;;;;;;1999.90;999.90;;;;;;;;;;4990000;28;20731;-71
2024/03/19 09:54:06;;;;;;;1999.90;999.90;;;;;;;;;;4990447;28;20203;-69
2024/03/19 09:56:51;;;;;;;1999.90;999.90;;;;;;;;;;4991953;28;20210;-71
2024/03/19 09:59:36;;;;;;;1999.90;999.90;;;;;;;;;;4992156;28;20310;-71
2024/03/19 10:02:21;;;;;;;1999.90;999.90;;;;;;;;;;4989029;28;20270;-70
2024/03/19 10:05:08;;;;;;;1999.90;999.90;;;;;;;;;;4989155;28;20722;-69
2024/03/19 10:07:55;;;;;;;1999.90;999.90;;;;;;;;;;4988634;28;20456;-72
2024/03/19 10:10:40;;;;;;;1999.90;999.90;;;;;;;;;;4989226;28;20437;-69
2024/03/19 10:13:25;;;;;;;1999.90;999.90;;;;;;;;;;4988013;28;20695;-71
2024/03/19 10:16:11;;;;;;;1999.90;999.90;;;;;;;;;;4989725;28;20284;-69
2024/03/19 10:18:57;;;;;;;1999.90;999.90;;;;;;;;;;4989685;28;20568;-67
2024/03/19 10:21:44;;;;;;;1999.90;999.90;;;;;;;;;;4985997;28;20214;-71
2024/03/19 10:24:32;;;;;;;1999.90;999.90;;;;;;;;;;4991313;28;20206;-71
2024/03/19 10:27:17;;;;;;;1999.90;999.90;;;;;;;;;;4987244;28;20297;-68
2024/03/19 10:30:02;;;;;;;1999.90;999.90;;;;;;;;;;4990923;28;20604;-70
2024/03/19 10:32:49;;;;;;;1999.90;999.90;;;;;;;;;;4989454;28;20421;-68
2024/03/19 10:35:34;;;;;;;1999.90;999.90;;;;;;;;;;4991429;28;20569;-69
2024/03/19 10:38:21;;;;;;;1999.90;999.90;;;;;;;;;;4990975;28;20271;-70
2024/03/19 10:41:08;;;;;;;1999.90;999.90;;;;;;;;;;4989856;28;20230;-67
2024/03/19 10:43:54;;;;;;;1999.90;999.90;;;;;;;;;;4990672;28;20675;-71
2024/03/19 10:46:39;;;;;;;1999.90;999.90;;;;;;;;;;4990313;28;20227;-67
2024/03/19 10:49:26;;;;;;;1999.90;999.90;;;;;;;;;;4990672;28;20307;-70
2024/03/19 10:52:15;;;;;;;1999.90;999.90;;;;;;;;;;4989002;28;20398;-71
2024/03/19 10:55:00;;;;;;;1999.90;999.90;;;;;;;;;;4990005;28;20219;-70
2024/03/19 10:57:47;;;;;;;1999.90;999.90;;;;;;;;;;4990304;28;20315;-70
2024/03/19 11:00:32;;;;;;;1999.90;999.90;;;;;;;;;;4990599;28;20234;-70
2024/03/19 11:03:18;;;;;;;1999.90;999.90;;;;;;;;;;4990666;28;20334;-71
2024/03/19 11:06:05;;;;;;;1999.90;999.90;;;;;;;;;;4990126;28;20216;-70
2024/03/19 11:08:54;;;;;;;1999.90;999.90;;;;;;;;;;4990848;28;20215;-71
2024/03/19 11:11:42;;;;;;;1999.90;999.90;;;;;;;;;;4988138;28;20334;-68
2024/03/19 11:14:29;;;;;;;1999.90;999.90;;;;;;;;;;4990270;28;20564;-72
2024/03/19 11:17:16;;;;;;;1999.90;999.90;;;;;;;;;;4990576;28;20207;-68
2024/03/19 11:20:04;;;;;;;1999.90;999.90;;;;;;;;;;4990087;28;20239;-70
2024/03/19 11:22:51;;;;;;;1999.90;999.90;;;;;;;;;;4978941;28;20279;-70
2024/03/19 11:25:38;;;;;;;1999.90;999.90;;;;;;;;;;4971661;28;20534;-70
2024/03/19 11:28:24;;;;;;;1999.90;999.90;;;;;;;;;;4971996;28;20935;-66
2024/03/19 11:31:11;;;;;;;1999.90;999.90;;;;;;;;;;4976043;28;20815;-70
2024/03/19 11:33:56;;;;;;;1999.90;999.90;;;;;;;;;;4976935;28;20290;-68
2024/03/19 11:36:45;;;;;;;1999.90;999.90;;;;;;;;;;4977255;28;20714;-70
2024/03/19 11:39:30;;;;;;;1999.90;999.90;;;;;;;;;;4991783;28;20324;-67
2024/03/19 11:42:16;;;;;;;1999.90;999.90;;;;;;;;;;4992306;28;20207;-68
2024/03/19 11:45:01;;;;;;;1999.90;999.90;;;;;;;;;;4986024;28;20434;-70
2024/03/19 11:47:48;;;;;;;1999.90;999.90;;;;;;;;;;4972575;28;20581;-68
2024/03/19 11:50:32;;;;;;;1999.90;999.90;;;;;;;;;;4974531;28;20254;-70
2024/03/19 11:53:18;;;;;;;1999.90;999.90;;;;;;;;;;4980070;28;20214;-70
2024/03/19 11:56:05;;;;;;;1999.90;999.90;;;;;;;;;;4972783;28;20291;-69
2024/03/19 11:58:49;;;;;;;1999.90;999.90;;;;;;;;;;4990319;28;20575;-68
2024/03/19 12:01:34;;;;;;;1999.90;999.90;;;;;;;;;;4972509;28;20212;-68
2024/03/19 12:04:21;;;;;;;1999.90;999.90;;;;;;;;;;4972497;28;20208;-69
2024/03/19 12:07:06;;;;;;;1999.90;999.90;;;;;;;;;;4982063;28;20312;-67
2024/03/19 12:09:51;;;;;;;1999.90;999.90;;;;;;;;;;4992013;28;20242;-70
2024/03/19 12:12:36;;;;;;;1999.90;999.90;;;;;;;;;;4992438;28;20347;-71
2024/03/19 12:15:21;;;;;;;1999.90;999.90;;;;;;;;;;4991915;28;20266;-70
2024/03/19 12:18:07;;;;;;;1999.90;999.90;;;;;;;;;;4973391;28;20432;-67
2024/03/19 12:20:53;;;;;;;1999.90;999.90;;;;;;;;;;4972408;28;20303;-69
2024/03/19 12:23:38;;;;;;;1999.90;999.90;;;;;;;;;;4974030;28;20266;-69
2024/03/19 12:26:24;;;;;;;1999.90;999.90;;;;;;;;;;4985208;28;20306;-68
2024/03/19 12:29:10;;;;;;;1999.90;999.90;;;;;;;;;;4991358;28;20323;-72
2024/03/19 12:32:02;;;;;;;1999.90;999.90;;;;;;;;;;4979475;28;20729;-71
2024/03/19 12:34:58;;;;;;;1999.90;999.90;;;;;;;;;;4972145;28;20303;-67
2024/03/19 12:37:45;;;;;;;1999.90;999.90;;;;;;;;;;4971163;28;20416;-71
2024/03/19 12:40:29;;;;;;;1999.90;999.90;;;;;;;;;;4984786;28;20731;-69
2024/03/19 12:43:14;;;;;;;1999.90;999.90;;;;;;;;;;4991665;28;20565;-67
2024/03/19 12:45:59;;;;;;;1999.90;999.90;;;;;;;;;;4991482;28;20219;-70
2024/03/19 12:48:44;;;;;;;1999.90;999.90;;;;;;;;;;4985846;28;20715;-70
2024/03/19 12:51:29;;;;;;;1999.90;999.90;;;;;;;;;;4993326;28;20215;-69
2024/03/19 12:54:15;;;;;;;1999.90;999.90;;;;;;;;;;4995146;28;20666;-71
2024/03/19 12:57:00;;;;;;;1999.90;999.90;;;;;;;;;;4991454;28;20211;-70
2024/03/19 12:59:44;;;;;;;1999.90;999.90;;;;;;;;;;4994659;28;20362;-71
2024/03/19 13:02:29;;;;;;;1999.90;999.90;;;;;;;;;;4994810;28;20216;-67
2024/03/19 13:05:15;;;;;;;1999.90;999.90;;;;;;;;;;4991388;28;20207;-67
2024/03/19 13:08:00;;;;;;;1999.90;999.90;;;;;;;;;;4988160;28;20608;-71
2024/03/19 13:10:46;;;;;;;1999.90;999.90;;;;;;;;;;4990252;28;20322;-71
2024/03/19 13:13:31;;;;;;;1999.90;999.90;;;;;;;;;;4974980;28;20430;-71
2024/03/19 13:16:16;;;;;;;1999.90;999.90;;;;;;;;;;4976398;28;20204;-69
2024/03/19 13:19:01;;;;;;;1999.90;999.90;;;;;;;;;;4975305;28;20212;-70
2024/03/19 13:21:46;;;;;;;1999.90;999.90;;;;;;;;;;4979088;28;20199;-68
2024/03/19 13:24:31;;;;;;;1999.90;999.90;;;;;;;;;;4986140;28;20292;-68
2024/03/19 13:27:18;;;;;;;1999.90;999.90;;;;;;;;;;4979009;28;20224;-71
2024/03/19 13:30:05;;;;;;;1999.90;999.90;;;;;;;;;;4988505;28;20306;-70
2024/03/19 13:32:50;;;;;;;1999.90;999.90;;;;;;;;;;4990113;28;20383;-71
2024/03/19 13:35:35;;;;;;;1999.90;999.90;;;;;;;;;;4991811;28;20210;-71
2024/03/19 13:38:20;;;;;;;1999.90;999.90;;;;;;;;;;4992260;28;20206;-71
2024/03/19 13:41:06;;;;;;;1999.90;999.90;;;;;;;;;;4989801;28;20247;-68
2024/03/19 13:43:52;;;;;;;1999.90;999.90;;;;;;;;;;4990938;28;20240;-70
2024/03/19 13:46:37;;;;;;;1999.90;999.90;;;;;;;;;;4990964;28;20215;-69
2024/03/19 13:49:26;;;;;;;1999.90;999.90;;;;;;;;;;4984481;28;20211;-69
2024/03/19 13:52:11;;;;;;;1999.90;999.90;;;;;;;;;;4990599;28;20307;-70
2024/03/19 13:54:58;;;;;;;1999.90;999.90;;;;;;;;;;4991896;28;20198;-66
2024/03/19 13:57:44;;;;;;;1999.90;999.90;;;;;;;;;;4991399;28;20215;-70
2024/03/19 14:00:32;;;;;;;1999.90;999.90;;;;;;;;;;4991584;28;20954;-70
2024/03/19 14:03:17;;;;;;;1999.90;999.90;;;;;;;;;;4990146;28;20208;-71
2024/03/19 14:06:03;;;;;;;1999.90;999.90;;;;;;;;;;4991006;28;20219;-70
2024/03/19 14:08:49;;;;;;;1999.90;999.90;;;;;;;;;;4989153;28;20413;-68
2024/03/19 14:11:34;;;;;;;1999.90;999.90;;;;;;;;;;4991081;28;20205;-70
2024/03/19 14:14:19;;;;;;;1999.90;999.90;;;;;;;;;;4991065;28;20254;-71
2024/03/19 14:17:06;;;;;;;1999.90;999.90;;;;;;;;;;4988852;28;20765;-69
2024/03/19 14:19:51;;;;;;;1999.90;999.90;;;;;;;;;;4987279;28;20331;-68
2024/03/19 14:22:36;;;;;;;1999.90;999.90;;;;;;;;;;4989353;28;20885;-69
2024/03/19 14:25:21;;;;;;;1999.90;999.90;;;;;;;;;;4990101;28;20207;-70
2024/03/19 14:28:06;;;;;;;1999.90;999.90;;;;;;;;;;4990596;28;20596;-71
2024/03/19 14:30:55;;;;;;;1999.90;999.90;;;;;;;;;;4991138;28;20233;-70
2024/03/19 14:33:41;;;;;;;1999.90;999.90;;;;;;;;;;4990031;28;20203;-70
2024/03/19 14:36:26;;;;;;;1999.90;999.90;;;;;;;;;;4990659;28;20696;-71
2024/03/19 14:39:13;;;;;;;1999.90;999.90;;;;;;;;;;4990678;28;20207;-69
2024/03/19 14:41:58;;;;;;;1999.90;999.90;;;;;;;;;;4991490;28;20211;-69
2024/03/19 14:44:43;;;;;;;1999.90;999.90;;;;;;;;;;4990777;28;21519;-70
2024/03/19 14:47:28;;;;;;;1999.90;999.90;;;;;;;;;;4990890;28;20227;-68
2024/03/19 14:50:14;;;;;;;1999.90;999.90;;;;;;;;;;4991038;28;20740;-69
2024/03/19 14:52:59;;;;;;;1999.90;999.90;;;;;;;;;;4991211;28;20280;-70
2024/03/19 14:55:44;;;;;;;1999.90;999.90;;;;;;;;;;4990957;28;20691;-69
2024/03/19 14:58:29;;;;;;;1999.90;999.90;;;;;;;;;;4990437;28;20299;-68
2024/03/19 15:01:14;;;;;;;1999.90;999.90;;;;;;;;;;4988830;28;20231;-68
2024/03/19 15:03:59;;;;;;;1999.90;999.90;;;;;;;;;;4988383;28;22446;-69
2024/03/19 15:06:45;;;;;;;1999.90;999.90;;;;;;;;;;4986718;28;20310;-70
2024/03/19 15:09:31;;;;;;;1999.90;999.90;;;;;;;;;;4986670;28;20227;-69
2024/03/19 15:12:16;;;;;;;1999.90;999.90;;;;;;;;;;4990627;28;20223;-69
2024/03/19 15:15:01;;;;;;;1999.90;999.90;;;;;;;;;;4988629;28;20295;-69
2024/03/19 15:17:46;;;;;;;1999.90;999.90;;;;;;;;;;4984820;28;20412;-68
2024/03/19 15:20:31;;;;;;;1999.90;999.90;;;;;;;;;;4986598;28;20274;-70
2024/03/19 15:23:17;;;;;;;1999.90;999.90;;;;;;;;;;4989544;28;20772;-70
2024/03/19 15:26:03;;;;;;;1999.90;999.90;;;;;;;;;;4984975;28;20220;-69
2024/03/19 15:28:48;;;;;;;1999.90;999.90;;;;;;;;;;4986799;28;20299;-70
2024/03/19 15:31:33;;;;;;;1999.90;999.90;;;;;;;;;;4989991;28;20207;-70
2024/03/19 15:34:18;;;;;;;1999.90;999.90;;;;;;;;;;4986522;28;20210;-69
2024/03/19 15:37:03;;;;;;;1999.90;999.90;;;;;;;;;;4986393;28;20263;-70
2024/03/19 15:39:50;;;;;;;1999.90;999.90;;;;;;;;;;4988505;28;20230;-71
2024/03/19 15:42:35;;;;;;;1999.90;999.90;;;;;;;;;;4988230;28;20583;-69
2024/03/19 15:45:21;;;;;;;1999.90;999.90;;;;;;;;;;4987836;28;20231;-69
2024/03/19 15:48:06;;;;;;;1999.90;999.90;;;;;;;;;;4986800;28;20258;-70
2024/03/19 15:50:51;;;;;;;1999.90;999.90;;;;;;;;;;4988929;28;20582;-69
2024/03/19 15:53:37;;;;;;;1999.90;999.90;;;;;;;;;;4987848;28;20331;-70
2024/03/19 15:56:23;;;;;;;1999.90;999.90;;;;;;;;;;4985930;28;20930;-67
2024/03/19 15:59:08;;;;;;;1999.90;999.90;;;;;;;;;;4986108;28;20448;-69
2024/03/19 16:01:53;;;;;;;1999.90;999.90;;;;;;;;;;4987785;28;20350;-69
2024/03/19 16:04:38;;;;;;;1999.90;999.90;;;;;;;;;;4987155;28;20210;-67
2024/03/19 16:07:23;;;;;;;1999.90;999.90;;;;;;;;;;4987733;28;20856;-68
2024/03/19 16:10:09;;;;;;;1999.90;999.90;;;;;;;;;;4989110;28;20234;-69
2024/03/19 16:12:55;;;;;;;1999.90;999.90;;;;;;;;;;4986794;28;20211;-70
2024/03/19 16:15:40;;;;;;;1999.90;999.90;;;;;;;;;;4987431;28;20417;-68
2024/03/19 16:18:25;;;;;;;1999.90;999.90;;;;;;;;;;4987179;28;20334;-70
2024/03/19 16:21:10;;;;;;;1999.90;999.90;;;;;;;;;;4984475;28;20227;-68
2024/03/19 16:23:54;;;;;;;1999.90;999.90;;;;;;;;;;4989809;28;20697;-70
2024/03/19 16:26:39;;;;;;;1999.90;999.90;;;;;;;;;;4993389;28;20227;-69
2024/03/19 16:29:26;;;;;;;1999.90;999.90;;;;;;;;;;4993547;28;20227;-71
2024/03/19 16:32:11;;;;;;;1999.90;999.90;;;;;;;;;;4992210;28;20335;-70
2024/03/19 16:34:56;;;;;;;1999.90;999.90;;;;;;;;;;4993383;28;20820;-70
2024/03/19 16:37:43;;;;;;;1999.90;999.90;;;;;;;;;;4990031;28;20215;-68